• Join FlightAware (Why Join?)
  • Login
  • US Flag 
01:37PM EDT


 

Airport Tracker/Info


-or-


 

Live Flight TrackerFlight Track Log ✈ N27XP ✈ 08-Apr-2014 ✈ KABE - KSOP

Flight Track Log - Related Links

Times and Time Zones

All times are in EDT time to prevent confusion due to time zone crossing. See the N27XP flight status page for this flight to view local times or setup timezone preferences in your user account.

Time Position Orientation Groundspeed Altitude Reporting Facility
EDT Latitude Longitude Course Direction KTS MPH feet Rate Location/Type
10:27PM 40.7117 -75.5264 224° Southwest 116 133 6,300  Level New York Center
10:28PM 40.6500 -75.6097 226° Southwest 231 266 9,100 2,460 Climbing New York Center
10:29PM 40.5928 -75.6850 225° Southwest 288 331 11,300 1,980 Climbing New York Center
10:30PM 40.5267 -75.7703 224° Southwest 323 372 13,100 1,800 Climbing New York Center
10:31PM 40.3835 -75.9308 224° Southwest  Level FlightAware Approximate
10:31PM 40.4647 -75.8531 225° Southwest 349 402 14,900  Level New York Center
10:32PM 40.3894 -75.9539 226° Southwest 363 418 16,800 1,500 Climbing New York Center
10:33PM 40.3253 -76.0361 224° Southwest 363 418 17,900 1,320 Climbing New York Center
10:34PM 40.2436 -76.1361 223° Southwest 362 417 19,500 1,200 Climbing New York Center
10:35PM 40.1842 -76.2103 224° Southwest 362 417 20,400 1,020 Climbing New York Center
10:36PM 40.0361 -76.3908 223° Southwest 348 400 22,500 1,200 Climbing Washington Center
10:37PM 39.9583 -76.4767 220° Southwest 361 415 23,900 720 Climbing Washington Center
10:38PM 39.8764 -76.5594 218° Southwest 368 423 24,000  Climbing Washington Center
10:39PM 39.7964 -76.6500 221° Southwest 380 437 24,000  Level Washington Center
10:40PM 39.7186 -76.7353 220° Southwest 380 437 24,000  Level Washington Center
10:41PM 39.6408 -76.8203 220° Southwest 380 437 24,000  Level Washington Center
10:42PM 39.5647 -76.9025 220° Southwest 369 425 24,000  Level Washington Center
10:43PM 39.4911 -76.9819 220° Southwest 364 419 24,000  Level Washington Center
10:44PM 39.4047 -77.0528 212° Southwest 359 413 24,000  Level Washington Center
10:45PM 39.3206 -77.1208 212° Southwest 359 413 24,000  Level Washington Center
10:46PM 39.2364 -77.1886 212° Southwest 359 413 24,000  Level Washington Center
10:47PM 39.1519 -77.2592 213° Southwest 359 413 24,000  Level Washington Center
10:48PM 39.0678 -77.3239 211° Southwest 364 419 24,000  Level Washington Center
10:49PM 38.9833 -77.3942 213° Southwest 364 419 24,000  Level Washington Center
10:50PM 38.8989 -77.4586 211° Southwest 364 419 24,000  Level Washington Center
10:51PM 38.8125 -77.5258 211° Southwest 364 419 24,000  Level Washington Center
10:52PM 38.7258 -77.5956 212° Southwest 370 426 24,000  Level Washington Center
10:53PM 38.6497 -77.6572 212° Southwest 370 426 24,000  Level Washington Center
10:54PM 38.5611 -77.7211 209° Southwest 370 426 24,000  Level Washington Center
10:55PM 38.4722 -77.7822 208° Southwest 365 420 24,000  Level Washington Center
10:56PM 38.3836 -77.8458 209° Southwest 365 420 24,000  Level Washington Center
10:57PM 38.2947 -77.9092 209° Southwest 365 420 24,000  Level Washington Center
10:58PM 38.2058 -77.9725 209° Southwest 365 420 24,000  Level Washington Center
10:59PM 38.1192 -78.0331 209° Southwest 365 420 24,000  Level Washington Center
11:00PM 38.0303 -78.0936 208° Southwest 365 420 24,000  Level Washington Center
11:01PM 37.9353 -78.1589 208° Southwest 365 420 24,000  Level Washington Center
11:02PM 37.8506 -78.2192 209° Southwest 359 413 24,000  Level Washington Center
11:03PM 37.7658 -78.2767 208° Southwest 354 407 24,000  Level Washington Center
11:04PM 37.6894 -78.3317 210° Southwest 354 407 24,000  Level Washington Center
11:05PM 37.6067 -78.3864 208° Southwest 354 407 24,000  Level Washington Center
11:06PM 37.5219 -78.4433 208° Southwest 354 407 24,000  Level Washington Center
11:07PM 37.4372 -78.5031 209° Southwest 354 407 24,000 -720 Level Washington Center
11:08PM 37.3461 -78.5622 207° Southwest 354 407 22,600 -1,740 Descending Washington Center
11:09PM 37.2589 -78.6242 209° Southwest 354 407 20,700 -1,320 Descending Washington Center
11:10PM 37.1697 -78.6806 207° Southwest 359 413 20,000 -360 Descending Washington Center
11:11PM 37.0828 -78.7394 208° Southwest 359 413 20,000  Level Washington Center
11:12PM 36.9958 -78.7958 207° Southwest 359 413 20,000  Level Washington Center
11:13PM 36.9192 -78.8497 209° Southwest 359 413 20,000  Level Washington Center
11:14PM 36.8319 -78.9083 208° Southwest 359 413 20,000  Level Washington Center
11:15PM 36.7428 -78.9667 208° Southwest 359 413 20,000  Level Washington Center
11:16PM 36.6383 -78.9675 180° South 349 402 20,000  Level Washington Center
11:17PM 36.5369 -78.9397 168° South 348 400 20,000  Level Washington Center
11:18PM 36.4375 -78.9147 169° South 354 407 20,000  Level Washington Center
11:19PM 36.3403 -78.8875 167° South 364 419 20,000 -660 Level Washington Center
11:20PM 36.2511 -78.8631 168° South 364 419 18,700 -1,740 Descending Washington Center
11:21PM 36.1558 -78.8386 168° South 371 427 16,600 -1,980 Descending Washington Center
11:22PM 36.0558 -78.8292 176° South 365 420 14,800 -1,920 Descending Washington Center
11:23PM 36.0228 -78.8228 171° South 355 409 14,200 -1,740 Descending Washington Center
11:23PM 35.9750 -78.8156 173° South 363 418 13,500 -1,260 Descending Washington Center
11:23PM 35.9564 -78.8072 160° South 365 420 13,200 -1,680 Descending Washington Center
11:24PM 35.8753 -78.7936 172° South 360 414 11,900 -1,740 Descending Washington Center
11:24PM 35.8606 -78.7983 195° South 365 420 11,600 -1,500 Descending Washington Center
11:25PM 35.7906 -78.8442 208° Southwest 328 377 10,400 -1,500 Descending Washington Center
11:25PM 35.7839 -78.8567 237° Southwest 335 386 10,100 -1,560 Descending Washington Center
11:26PM 35.7175 -78.9178 217° Southwest 313 360 8,500 -1,560 Descending Washington Center
11:27PM 35.6556 -78.9767 218° Southwest 301 346 7,000 -1,500 Descending Washington Center
11:28PM 35.5933 -79.0353 217° Southwest 289 333 5,600 -1,440 Descending Washington Center
11:29PM 35.5244 -79.1011 218° Southwest 284 327 4,100 -840 Descending Washington Center
11:30PM 35.4603 -79.1594 217° Southwest 284 327 4,000 3,000 Descending Washington Center
11:31PM 35.3958 -79.2203 218° Southwest 284 327 10,000 3,000 Climbing Washington Center
11:32PM 35.3314 -79.2811 218° Southwest 284 327 10,000  Level Washington Center